createdAt,value
2022-11-19T00:01:50.877Z,100.00
2022-11-19T00:04:17.807Z,100.00
2022-11-19T00:06:44.841Z,100.00
2022-11-19T00:09:14.427Z,100.00
2022-11-19T00:12:00.185Z,100.00
2022-11-19T00:14:27.236Z,100.00
2022-11-19T00:16:54.124Z,100.00
2022-11-19T00:19:21.178Z,100.00
2022-11-19T00:21:50.252Z,100.00
2022-11-19T00:24:17.164Z,100.00
2022-11-19T00:26:44.597Z,100.00
2022-11-19T00:29:17.932Z,100.00
2022-11-19T00:31:45.246Z,100.00
2022-11-19T00:34:12.438Z,100.00
2022-11-19T00:36:39.459Z,100.00
2022-11-19T00:39:06.608Z,100.00
2022-11-19T00:41:33.487Z,100.00
2022-11-19T00:44:00.331Z,100.00
2022-11-19T00:46:31.364Z,100.00
2022-11-19T00:48:59.894Z,100.00
2022-11-19T00:51:29.462Z,100.00
2022-11-19T00:53:57.070Z,100.00
2022-11-19T00:56:26.511Z,100.00
2022-11-19T00:58:54.445Z,100.00
2022-11-19T01:01:24.702Z,100.00
2022-11-19T01:03:53.713Z,100.00
2022-11-19T01:06:23.262Z,100.00
2022-11-19T01:08:51.818Z,100.00
2022-11-19T01:11:22.617Z,100.00
2022-11-19T01:13:49.795Z,100.00
2022-11-19T01:16:19.684Z,100.00
2022-11-19T01:18:49.061Z,100.00
2022-11-19T01:21:17.622Z,100.00
2022-11-19T01:23:45.359Z,100.00
2022-11-19T01:26:13.583Z,100.00
2022-11-19T01:28:41.076Z,100.00
2022-11-19T01:31:25.134Z,100.00
2022-11-19T01:33:53.492Z,100.00
2022-11-19T01:36:24.025Z,100.00
2022-11-19T01:38:51.900Z,100.00
2022-11-19T01:41:24.616Z,100.00
2022-11-19T01:43:54.393Z,100.00
2022-11-19T01:46:24.054Z,100.00
2022-11-19T01:48:57.341Z,100.00
2022-11-19T01:51:31.387Z,100.00
2022-11-19T01:54:02.055Z,100.00
2022-11-19T01:56:30.314Z,100.00
2022-11-19T01:59:07.582Z,100.00
2022-11-19T02:01:34.870Z,100.00
2022-11-19T02:04:03.286Z,100.00
2022-11-19T02:06:31.630Z,100.00
2022-11-19T02:08:59.244Z,100.00
2022-11-19T02:11:27.558Z,100.00
2022-11-19T02:14:03.207Z,100.00
2022-11-19T02:16:38.068Z,100.00
2022-11-19T02:19:16.983Z,100.00
2022-11-19T02:22:02.531Z,100.00
2022-11-19T02:24:48.809Z,100.00
2022-11-19T02:27:37.512Z,100.00
2022-11-19T02:30:10.114Z,100.00
2022-11-19T02:32:45.787Z,100.00
2022-11-19T02:35:24.314Z,100.00
2022-11-19T02:38:08.453Z,100.00
2022-11-19T02:40:44.070Z,100.00
2022-11-19T02:43:27.281Z,100.00
2022-11-19T02:46:00.142Z,100.00
2022-11-19T02:48:35.874Z,100.00
2022-11-19T02:51:05.193Z,100.00
2022-11-19T02:53:33.396Z,100.00
2022-11-19T02:56:34.482Z,100.00
2022-11-19T02:59:21.356Z,100.00
2022-11-19T03:02:07.988Z,100.00
2022-11-19T03:04:35.447Z,100.00
2022-11-19T03:07:17.199Z,100.00
2022-11-19T03:10:07.156Z,100.00
2022-11-19T03:12:54.611Z,100.00
2022-11-19T03:16:05.928Z,100.00
2022-11-19T03:18:44.867Z,100.00
2022-11-19T03:21:24.485Z,100.00
2022-11-19T03:23:58.195Z,100.00
2022-11-19T03:26:30.738Z,100.00
2022-11-19T03:29:04.410Z,100.00
2022-11-19T03:31:34.789Z,100.00
2022-11-19T03:34:10.421Z,100.00
2022-11-19T03:36:40.992Z,100.00
2022-11-19T03:39:12.988Z,100.00
2022-11-19T03:41:42.046Z,100.00
2022-11-19T03:44:14.633Z,100.00
2022-11-19T03:46:43.973Z,100.00
2022-11-19T03:49:22.885Z,100.00
2022-11-19T03:52:02.669Z,100.00
2022-11-19T03:54:29.779Z,100.00
2022-11-19T03:56:58.932Z,100.00
2022-11-19T03:59:29.885Z,100.00
2022-11-19T04:02:01.500Z,100.00
2022-11-19T04:04:38.338Z,100.00
2022-11-19T04:07:18.573Z,100.00
2022-11-19T04:09:45.653Z,100.00
2022-11-19T04:12:19.305Z,100.00
2022-11-19T04:14:46.619Z,100.00
2022-11-19T04:17:14.005Z,100.00
2022-11-19T04:19:41.380Z,100.00
2022-11-19T04:22:08.494Z,100.00
2022-11-19T04:24:35.568Z,100.00
2022-11-19T04:27:02.483Z,100.00
2022-11-19T04:29:29.467Z,100.00
2022-11-19T04:31:56.372Z,100.00
2022-11-19T04:34:23.525Z,100.00
2022-11-19T04:36:50.500Z,100.00
2022-11-19T04:39:17.559Z,100.00
2022-11-19T04:41:44.649Z,100.00
2022-11-19T04:44:11.540Z,100.00
2022-11-19T04:46:38.684Z,100.00
2022-11-19T04:49:05.733Z,100.00
2022-11-19T04:51:32.757Z,100.00
2022-11-19T04:53:59.625Z,100.00
2022-11-19T04:56:26.541Z,100.00
2022-11-19T04:58:53.361Z,100.00
2022-11-19T05:01:21.809Z,100.00
2022-11-19T05:03:48.997Z,100.00
2022-11-19T05:06:16.074Z,100.00
2022-11-19T05:08:43.484Z,100.00
2022-11-19T05:11:10.784Z,100.00
2022-11-19T05:13:37.886Z,100.00
2022-11-19T05:16:05.068Z,100.00
2022-11-19T05:18:32.367Z,100.00
2022-11-19T05:20:59.595Z,100.00
2022-11-19T05:23:26.937Z,100.00
2022-11-19T05:25:53.902Z,100.00
2022-11-19T05:31:05.950Z,100.00
2022-11-19T05:33:34.497Z,100.00
2022-11-19T05:36:02.293Z,100.00
2022-11-19T05:38:29.300Z,100.00
2022-11-19T05:40:56.576Z,100.00
2022-11-19T05:43:23.706Z,100.00
2022-11-19T05:45:50.763Z,100.00
2022-11-19T05:48:17.668Z,100.00
2022-11-19T05:50:44.524Z,100.00
2022-11-19T05:53:11.795Z,100.00
2022-11-19T05:55:38.911Z,100.00
2022-11-19T05:58:06.024Z,100.00
2022-11-19T06:00:32.874Z,100.00
2022-11-19T06:03:01.171Z,100.00
2022-11-19T06:05:28.683Z,100.00
2022-11-19T06:07:55.627Z,100.00
2022-11-19T06:10:22.707Z,100.00
2022-11-19T06:12:50.407Z,100.00
2022-11-19T06:15:17.425Z,100.00
2022-11-19T06:17:44.493Z,100.00
2022-11-19T06:20:11.831Z,100.00
2022-11-19T06:22:39.961Z,100.00
2022-11-19T06:25:07.933Z,100.00
2022-11-19T06:27:35.589Z,100.00
2022-11-19T06:30:02.901Z,100.00
2022-11-19T06:32:30.724Z,100.00
2022-11-19T06:35:14.486Z,100.00
2022-11-19T06:37:50.490Z,100.00
2022-11-19T06:40:23.551Z,100.00
2022-11-19T06:42:52.477Z,100.00
2022-11-19T06:45:21.587Z,100.00
2022-11-19T06:47:49.458Z,100.00
2022-11-19T06:50:16.712Z,100.00
2022-11-19T06:52:43.776Z,100.00
2022-11-19T06:55:10.873Z,100.00
2022-11-19T06:57:39.020Z,100.00
2022-11-19T07:00:06.895Z,100.00
2022-11-19T07:02:33.973Z,100.00
2022-11-19T07:05:01.258Z,100.00
2022-11-19T07:07:28.389Z,100.00
2022-11-19T07:09:55.429Z,100.00
2022-11-19T07:12:22.341Z,100.00
2022-11-19T07:14:49.416Z,100.00
2022-11-19T07:17:16.352Z,100.00
2022-11-19T07:19:43.651Z,100.00
2022-11-19T07:22:10.912Z,100.00
2022-11-19T07:24:38.170Z,100.00
2022-11-19T07:27:05.099Z,100.00
2022-11-19T07:29:32.329Z,100.00
2022-11-19T07:31:59.475Z,100.00
2022-11-19T07:34:26.318Z,100.00
2022-11-19T07:36:53.447Z,100.00
2022-11-19T07:39:20.834Z,100.00
2022-11-19T07:42:07.039Z,100.00
2022-11-19T07:44:34.946Z,100.00
2022-11-19T07:47:01.898Z,100.00
2022-11-19T07:49:28.998Z,100.00
2022-11-19T07:51:56.025Z,100.00
2022-11-19T07:54:23.193Z,100.00
2022-11-19T07:56:50.456Z,100.00
2022-11-19T07:59:18.131Z,100.00
2022-11-19T08:01:45.362Z,100.00
2022-11-19T08:04:12.367Z,100.00
2022-11-19T08:06:39.382Z,100.00
2022-11-19T08:09:06.505Z,100.00
2022-11-19T08:11:33.623Z,100.00
2022-11-19T08:14:03.922Z,100.00
2022-11-19T08:16:51.911Z,100.00
2022-11-19T08:19:19.404Z,100.00
2022-11-19T08:21:47.301Z,100.00
2022-11-19T08:24:16.307Z,100.00
2022-11-19T08:26:44.326Z,100.00
2022-11-19T08:29:16.588Z,100.00
2022-11-19T08:31:47.279Z,100.00
2022-11-19T08:34:15.483Z,100.00
2022-11-19T08:36:42.589Z,100.00
2022-11-19T08:39:10.094Z,100.00
2022-11-19T08:41:56.136Z,100.00
2022-11-19T08:44:23.339Z,100.00
2022-11-19T08:46:50.743Z,100.00
2022-11-19T08:49:17.951Z,100.00
2022-11-19T08:51:45.839Z,100.00
2022-11-19T08:54:13.388Z,100.00
2022-11-19T08:56:40.637Z,100.00
2022-11-19T08:59:07.576Z,100.00
2022-11-19T09:01:34.429Z,100.00
2022-11-19T09:04:01.913Z,100.00
2022-11-19T09:06:28.872Z,100.00
2022-11-19T09:08:56.087Z,100.00
2022-11-19T09:11:23.230Z,100.00
2022-11-19T09:13:50.499Z,98.59
2022-11-19T09:16:17.681Z,97.63
2022-11-19T09:18:44.983Z,98.55
2022-11-19T09:21:12.864Z,97.47
2022-11-19T09:23:42.709Z,96.79
2022-11-19T09:26:13.791Z,96.68
2022-11-19T09:28:41.757Z,96.80
2022-11-19T09:31:15.088Z,97.95
2022-11-19T09:33:44.364Z,99.03
2022-11-19T09:36:12.524Z,98.95
2022-11-19T09:38:40.905Z,98.50
2022-11-19T09:41:45.411Z,95.90
2022-11-19T09:44:29.956Z,95.16
2022-11-19T09:47:21.571Z,94.46
2022-11-19T09:50:22.292Z,91.84
2022-11-19T09:52:59.293Z,91.14
2022-11-19T09:55:36.788Z,90.12
2022-11-19T09:58:07.490Z,89.93
2022-11-19T10:00:34.609Z,89.12
2022-11-19T10:03:11.493Z,88.75
2022-11-19T10:05:41.482Z,87.40
2022-11-19T10:08:16.537Z,85.81
2022-11-19T10:11:02.563Z,86.01
2022-11-19T10:14:18.254Z,84.59
2022-11-19T10:17:07.884Z,85.63
2022-11-19T10:19:47.373Z,82.55
2022-11-19T10:22:17.280Z,82.22
2022-11-19T10:25:07.585Z,81.90
2022-11-19T10:28:02.128Z,79.62
2022-11-19T10:30:31.147Z,80.74
2022-11-19T10:33:15.002Z,79.67
2022-11-19T10:35:46.193Z,79.17
2022-11-19T10:38:26.859Z,78.42
2022-11-19T10:41:00.222Z,78.35
2022-11-19T10:43:37.081Z,79.37
2022-11-19T10:46:09.218Z,76.17
2022-11-19T10:48:43.341Z,74.73
2022-11-19T10:51:19.331Z,75.59
2022-11-19T10:53:46.434Z,75.00
2022-11-19T10:56:18.108Z,74.95
2022-11-19T10:58:49.203Z,73.42
2022-11-19T11:01:31.533Z,73.79
2022-11-19T11:04:13.385Z,75.36
2022-11-19T11:06:52.572Z,75.65
2022-11-19T11:09:51.969Z,76.14
2022-11-19T11:12:37.527Z,75.65
2022-11-19T11:15:21.768Z,77.82
2022-11-19T11:18:03.737Z,75.45
2022-11-19T11:20:31.626Z,74.22
2022-11-19T11:23:12.185Z,73.46
2022-11-19T11:25:39.629Z,74.44
2022-11-19T11:28:16.420Z,73.72
2022-11-19T11:31:00.173Z,74.73
2022-11-19T11:33:43.409Z,74.71
2022-11-19T11:36:20.563Z,72.57
2022-11-19T11:38:50.703Z,72.49
2022-11-19T11:42:04.359Z,74.15
2022-11-19T11:44:20.834Z,74.27
2022-11-19T11:47:23.288Z,73.94
2022-11-19T11:49:57.644Z,74.87
2022-11-19T11:52:53.453Z,73.94
2022-11-19T11:55:23.400Z,72.82
2022-11-19T11:57:57.779Z,73.96
2022-11-19T12:00:56.037Z,73.58
2022-11-19T12:03:23.834Z,72.02
2022-11-19T12:05:50.832Z,72.38
2022-11-19T12:09:00.416Z,72.22
2022-11-19T12:11:54.178Z,72.93
2022-11-19T12:14:46.251Z,72.49
2022-11-19T12:17:46.574Z,71.95
2022-11-19T12:20:45.047Z,72.75
2022-11-19T12:23:33.697Z,72.41
2022-11-19T12:26:19.550Z,72.59
2022-11-19T12:29:11.586Z,72.52
2022-11-19T12:31:59.961Z,72.20
2022-11-19T12:34:59.176Z,73.32
2022-11-19T12:37:35.323Z,71.90
2022-11-19T12:40:30.057Z,71.64
2022-11-19T12:43:13.484Z,73.20
2022-11-19T12:46:03.189Z,73.84
2022-11-19T12:48:36.661Z,73.84
2022-11-19T12:51:04.608Z,74.50
2022-11-19T12:53:59.075Z,73.99
2022-11-19T12:56:42.424Z,73.91
2022-11-19T12:59:34.386Z,73.84
2022-11-19T13:02:08.041Z,74.97
2022-11-19T13:04:48.481Z,74.68
2022-11-19T13:07:23.230Z,75.12
2022-11-19T13:10:00.586Z,75.05
2022-11-19T13:12:35.482Z,75.79
2022-11-19T13:15:08.719Z,76.33
2022-11-19T13:17:40.724Z,76.33
2022-11-19T13:20:38.061Z,76.74
2022-11-19T13:23:07.222Z,76.04
2022-11-19T13:25:42.687Z,76.16
2022-11-19T13:28:46.349Z,76.13
2022-11-19T13:31:41.762Z,76.16
2022-11-19T13:34:47.921Z,76.43
2022-11-19T13:37:21.696Z,77.43
2022-11-19T13:40:02.080Z,77.46
2022-11-19T13:43:25.043Z,77.37
2022-11-19T13:46:00.292Z,77.55
2022-11-19T13:48:34.262Z,77.54
2022-11-19T13:51:04.352Z,77.34
2022-11-19T13:53:38.028Z,77.27
2022-11-19T13:56:12.290Z,77.77
2022-11-19T13:58:55.040Z,78.47
2022-11-19T14:01:47.627Z,78.38
2022-11-19T14:04:27.250Z,79.08
2022-11-19T14:07:13.241Z,80.23
2022-11-19T14:09:51.848Z,80.23
2022-11-19T14:12:53.210Z,79.84
2022-11-19T14:15:48.081Z,80.32
2022-11-19T14:18:54.690Z,80.70
2022-11-19T14:21:43.479Z,80.18
2022-11-19T14:24:44.797Z,80.22
2022-11-19T14:27:27.739Z,80.43
2022-11-19T14:29:59.235Z,80.21
2022-11-19T14:32:46.336Z,80.42
2022-11-19T14:35:27.230Z,81.30
2022-11-19T14:37:58.022Z,81.57
2022-11-19T14:40:33.993Z,82.22
2022-11-19T14:43:19.762Z,82.42
2022-11-19T14:46:05.261Z,83.31
2022-11-19T14:48:47.452Z,83.41
2022-11-19T14:51:34.668Z,82.47
2022-11-19T14:54:14.041Z,83.36
2022-11-19T14:56:42.900Z,84.06
2022-11-19T14:59:16.215Z,83.66
2022-11-19T15:01:55.668Z,84.20
2022-11-19T15:04:24.014Z,85.26
2022-11-19T15:06:52.558Z,86.71
2022-11-19T15:09:50.692Z,87.65
2022-11-19T15:12:19.870Z,88.32
2022-11-19T15:15:17.233Z,88.74
2022-11-19T15:17:45.340Z,89.16
2022-11-19T15:20:22.507Z,89.79
2022-11-19T15:23:05.994Z,89.79
2022-11-19T15:25:44.704Z,91.18
2022-11-19T15:28:30.617Z,91.80
2022-11-19T15:31:04.857Z,91.12
2022-11-19T15:34:26.090Z,91.67
2022-11-19T15:37:00.994Z,93.03
2022-11-19T15:39:43.312Z,92.18
2022-11-19T15:42:34.614Z,92.41
2022-11-19T15:45:08.235Z,92.26
2022-11-19T15:47:47.128Z,93.03
2022-11-19T15:50:20.852Z,93.32
2022-11-19T15:52:59.638Z,92.76
2022-11-19T15:55:32.056Z,92.27
2022-11-19T15:58:12.669Z,91.40
2022-11-19T16:00:48.336Z,88.44
2022-11-19T16:03:16.503Z,84.37
2022-11-19T16:05:50.249Z,81.96
2022-11-19T16:08:18.020Z,80.11
2022-11-19T16:10:47.989Z,78.78
2022-11-19T16:13:42.385Z,79.14
2022-11-19T16:16:42.793Z,77.63
2022-11-19T16:19:14.271Z,77.80
2022-11-19T16:21:43.449Z,77.58
2022-11-19T16:24:32.489Z,77.22
2022-11-19T16:27:01.460Z,75.53
2022-11-19T16:29:28.708Z,75.94
2022-11-19T16:32:01.998Z,75.50
2022-11-19T16:34:31.688Z,75.55
2022-11-19T16:36:59.743Z,74.82
2022-11-19T16:39:29.692Z,74.51
2022-11-19T16:42:19.810Z,74.98
2022-11-19T16:44:50.094Z,75.77
2022-11-19T16:47:26.281Z,77.46
2022-11-19T16:50:32.458Z,77.49
2022-11-19T16:53:01.147Z,77.99
2022-11-19T16:55:28.981Z,78.59
2022-11-19T16:57:59.253Z,79.18
2022-11-19T17:00:38.376Z,80.73
2022-11-19T17:03:20.938Z,81.07
2022-11-19T17:05:51.973Z,81.29
2022-11-19T17:08:29.199Z,81.79
2022-11-19T17:11:35.226Z,81.67
2022-11-19T17:14:17.708Z,82.27
2022-11-19T17:16:49.272Z,82.17
2022-11-19T17:19:27.152Z,84.37
2022-11-19T17:22:01.856Z,83.77
2022-11-19T17:24:40.555Z,84.69
2022-11-19T17:27:11.619Z,84.24
2022-11-19T17:29:38.717Z,84.29
2022-11-19T17:32:05.999Z,84.31
2022-11-19T17:34:45.043Z,83.80
2022-11-19T17:37:12.416Z,83.89
2022-11-19T17:39:39.400Z,84.75
2022-11-19T17:42:25.080Z,84.84
2022-11-19T17:44:53.639Z,85.47
2022-11-19T17:47:23.606Z,86.68
2022-11-19T17:49:54.459Z,88.07
2022-11-19T17:52:27.656Z,87.68
2022-11-19T17:55:02.742Z,87.20
2022-11-19T17:57:31.316Z,88.13
2022-11-19T17:59:58.178Z,89.02
2022-11-19T18:02:25.310Z,89.25
2022-11-19T18:04:52.353Z,88.11
2022-11-19T18:07:19.531Z,88.83
2022-11-19T18:09:46.676Z,90.84
2022-11-19T18:12:17.104Z,90.85
2022-11-19T18:14:46.376Z,90.00
2022-11-19T18:17:15.085Z,90.18
2022-11-19T18:19:42.319Z,91.04
2022-11-19T18:22:18.781Z,91.46
2022-11-19T18:24:50.342Z,91.80
2022-11-19T18:27:17.234Z,91.50
2022-11-19T18:29:44.699Z,92.64
2022-11-19T18:32:15.251Z,92.91
2022-11-19T18:34:43.457Z,92.47
2022-11-19T18:37:11.111Z,94.74
2022-11-19T18:39:38.252Z,93.87
2022-11-19T18:42:05.741Z,93.63
2022-11-19T18:44:35.534Z,94.31
2022-11-19T18:47:07.708Z,96.09
2022-11-19T18:49:35.318Z,95.92
2022-11-19T18:52:04.297Z,95.47
2022-11-19T18:54:31.349Z,95.91
2022-11-19T18:56:58.686Z,96.57
2022-11-19T18:59:25.616Z,96.68
2022-11-19T19:01:55.679Z,96.85
2022-11-19T19:04:24.228Z,95.95
2022-11-19T19:06:51.599Z,96.35
2022-11-19T19:09:22.013Z,95.80
2022-11-19T19:12:13.587Z,95.02
2022-11-19T19:14:42.219Z,95.21
2022-11-19T19:17:09.963Z,94.78
2022-11-19T19:19:37.319Z,94.82
2022-11-19T19:22:04.888Z,95.71
2022-11-19T19:24:32.649Z,95.04
2022-11-19T19:27:00.982Z,94.55
2022-11-19T19:29:28.208Z,94.74
2022-11-19T19:31:55.390Z,94.10
2022-11-19T19:34:22.701Z,93.20
2022-11-19T19:36:53.257Z,93.89
2022-11-19T19:39:21.235Z,94.38
2022-11-19T19:41:49.472Z,94.28
2022-11-19T19:44:16.915Z,93.56
2022-11-19T19:46:43.887Z,93.18
2022-11-19T19:49:10.919Z,93.87
2022-11-19T19:51:38.075Z,94.86
2022-11-19T19:54:05.024Z,96.68
2022-11-19T19:56:32.884Z,96.26
2022-11-19T19:59:00.998Z,95.92
2022-11-19T20:01:33.153Z,95.16
2022-11-19T20:04:06.021Z,95.28
2022-11-19T20:06:34.557Z,96.32
2022-11-19T20:09:07.021Z,95.88
2022-11-19T20:11:36.155Z,95.23
2022-11-19T20:14:03.651Z,94.51
2022-11-19T20:16:31.956Z,95.78
2022-11-19T20:19:00.396Z,96.23
2022-11-19T20:21:31.737Z,96.30
2022-11-19T20:23:59.108Z,95.80
2022-11-19T20:26:29.398Z,95.75
2022-11-19T20:29:04.631Z,94.73
2022-11-19T20:31:33.493Z,96.09
2022-11-19T20:34:04.279Z,95.42
2022-11-19T20:36:34.010Z,95.84
2022-11-19T20:39:01.576Z,96.34
2022-11-19T20:41:47.959Z,95.17
2022-11-19T20:44:25.686Z,95.28
2022-11-19T20:46:54.195Z,95.14
2022-11-19T20:49:24.730Z,96.95
2022-11-19T20:51:52.717Z,97.14
2022-11-19T20:54:21.489Z,97.76
2022-11-19T20:56:50.022Z,97.59
2022-11-19T20:59:17.441Z,96.56
2022-11-19T21:01:44.876Z,97.28
2022-11-19T21:04:12.119Z,98.92
2022-11-19T21:06:39.863Z,98.25
2022-11-19T21:09:07.078Z,99.29
2022-11-19T21:11:34.734Z,100.00
2022-11-19T21:14:02.397Z,100.00
2022-11-19T21:16:29.961Z,100.00
2022-11-19T21:18:56.912Z,100.00
2022-11-19T21:21:24.698Z,100.00
2022-11-19T21:23:53.449Z,100.00
2022-11-19T21:26:26.090Z,99.84
2022-11-19T21:28:55.782Z,100.00
2022-11-19T21:31:48.761Z,100.00
2022-11-19T21:34:17.905Z,100.00
2022-11-19T21:36:46.710Z,100.00
2022-11-19T21:39:15.030Z,100.00
2022-11-19T21:41:42.226Z,100.00
2022-11-19T21:44:09.990Z,100.00
2022-11-19T21:46:37.083Z,100.00
2022-11-19T21:49:04.912Z,100.00
2022-11-19T21:51:31.829Z,100.00
2022-11-19T21:53:59.332Z,100.00
2022-11-19T21:56:28.024Z,100.00
2022-11-19T21:58:55.179Z,100.00
2022-11-19T22:01:22.263Z,100.00
2022-11-19T22:03:49.588Z,100.00
2022-11-19T22:06:16.828Z,99.56
2022-11-19T22:08:43.945Z,99.87
2022-11-19T22:11:31.241Z,98.79
2022-11-19T22:14:01.573Z,92.79
2022-11-19T22:16:29.191Z,93.08
2022-11-19T22:18:56.070Z,92.88
2022-11-19T22:21:23.326Z,92.83
2022-11-19T22:23:50.269Z,92.12
2022-11-19T22:26:17.734Z,91.41
2022-11-19T22:28:44.663Z,90.61
2022-11-19T22:31:11.782Z,90.07
2022-11-19T22:33:40.810Z,89.95
2022-11-19T22:36:10.566Z,88.71
2022-11-19T22:38:39.034Z,87.50
2022-11-19T22:41:10.229Z,85.12
2022-11-19T22:43:38.760Z,82.38
2022-11-19T22:46:06.975Z,79.09
2022-11-19T22:48:33.964Z,79.81
2022-11-19T22:51:08.904Z,80.10
2022-11-19T22:53:36.915Z,79.44
2022-11-19T22:56:06.635Z,79.49
2022-11-19T22:58:34.467Z,79.97
2022-11-19T23:01:01.616Z,79.96
2022-11-19T23:03:28.964Z,79.44
2022-11-19T23:05:56.321Z,78.93
2022-11-19T23:08:23.156Z,79.19
2022-11-19T23:11:04.282Z,78.95
2022-11-19T23:13:34.205Z,79.02
2022-11-19T23:16:03.142Z,78.32
2022-11-19T23:18:33.576Z,77.68
2022-11-19T23:21:06.130Z,77.16
2022-11-19T23:23:34.613Z,75.21
2022-11-19T23:26:02.796Z,77.21
2022-11-19T23:28:31.497Z,78.63
2022-11-19T23:31:03.716Z,79.12
2022-11-19T23:33:31.030Z,79.67
2022-11-19T23:36:18.972Z,81.64
2022-11-19T23:38:45.992Z,81.89
2022-11-19T23:41:15.504Z,81.26
2022-11-19T23:43:42.886Z,78.46
2022-11-19T23:46:16.103Z,78.46
2022-11-19T23:48:44.883Z,79.81
2022-11-19T23:51:14.187Z,79.62
2022-11-19T23:53:42.311Z,79.33
2022-11-19T23:56:10.203Z,78.07
2022-11-19T23:58:37.580Z,77.46
